createdAt,value
2018-05-25T00:01:18.687Z,19.60
2018-05-25T00:03:46.397Z,17.47
2018-05-25T00:06:14.051Z,21.10
2018-05-25T00:08:41.719Z,19.03
2018-05-25T00:11:09.355Z,20.47
2018-05-25T00:13:37.769Z,18.93
2018-05-25T00:16:05.555Z,21.33
2018-05-25T00:18:33.837Z,18.47
2018-05-25T00:21:02.317Z,20.43
2018-05-25T00:23:30.906Z,21.90
2018-05-25T00:25:59.554Z,18.33
2018-05-25T00:28:27.873Z,21.60
2018-05-25T00:30:57.668Z,18.63
2018-05-25T00:33:25.808Z,20.37
2018-05-25T00:35:54.268Z,18.37
2018-05-25T00:38:22.010Z,18.20
2018-05-25T00:40:50.495Z,20.00
2018-05-25T00:43:18.284Z,17.87
2018-05-25T00:45:45.991Z,17.40
2018-05-25T00:48:14.461Z,17.30
2018-05-25T00:50:42.177Z,18.40
2018-05-25T00:53:09.854Z,21.37
2018-05-25T00:55:44.273Z,23.47
2018-05-25T00:58:12.122Z,19.90
2018-05-25T01:00:41.703Z,20.13
2018-05-25T01:03:11.723Z,19.97
2018-05-25T01:05:41.067Z,17.97
2018-05-25T01:08:09.593Z,16.80
2018-05-25T01:10:38.101Z,21.13
2018-05-25T01:13:07.462Z,18.97
2018-05-25T01:15:35.240Z,18.73
2018-05-25T01:18:04.276Z,19.40
2018-05-25T01:20:33.759Z,15.70
2018-05-25T01:23:02.350Z,21.17
2018-05-25T01:25:32.307Z,22.43
2018-05-25T01:28:01.775Z,17.00
2018-05-25T01:30:31.210Z,17.73
2018-05-25T01:33:00.675Z,22.07
2018-05-25T01:35:29.446Z,18.80
2018-05-25T01:37:57.132Z,18.00
2018-05-25T01:40:24.831Z,21.70
2018-05-25T01:42:54.123Z,21.90
2018-05-25T01:45:24.615Z,22.70
2018-05-25T01:47:52.307Z,22.87
2018-05-25T01:50:19.996Z,23.37
2018-05-25T01:52:48.667Z,17.23
2018-05-25T01:55:20.907Z,18.67
2018-05-25T01:57:48.644Z,20.40
2018-05-25T02:00:18.069Z,19.87
2018-05-25T02:02:46.357Z,18.70
2018-05-25T02:05:14.199Z,17.90
2018-05-25T02:07:41.953Z,19.07
2018-05-25T02:10:14.236Z,17.37
2018-05-25T02:12:42.815Z,19.00
2018-05-25T02:15:13.983Z,16.77
2018-05-25T02:17:42.348Z,16.03
2018-05-25T02:20:10.994Z,17.60
2018-05-25T02:22:38.676Z,19.10
2018-05-25T02:25:06.569Z,18.37
2018-05-25T02:27:38.002Z,21.90
2018-05-25T02:30:06.634Z,18.10
2018-05-25T02:32:34.328Z,20.67
2018-05-25T02:35:02.076Z,19.97
2018-05-25T02:37:29.775Z,19.93
2018-05-25T02:40:01.135Z,18.33
2018-05-25T02:42:31.877Z,17.87
2018-05-25T02:45:03.020Z,20.30
2018-05-25T02:47:30.839Z,17.60
2018-05-25T02:49:59.600Z,24.87
2018-05-25T02:52:30.021Z,20.30
2018-05-25T02:54:59.008Z,21.97
2018-05-25T02:57:27.538Z,17.30
2018-05-25T02:59:57.410Z,18.77
2018-05-25T03:02:27.353Z,20.67
2018-05-25T03:04:59.196Z,17.73
2018-05-25T03:07:27.970Z,18.13
2018-05-25T03:09:56.639Z,20.47
2018-05-25T03:12:25.205Z,19.37
2018-05-25T03:14:54.479Z,20.47
2018-05-25T03:17:24.411Z,19.97
2018-05-25T03:19:54.466Z,23.73
2018-05-25T03:22:22.448Z,21.93
2018-05-25T03:24:52.422Z,20.90
2018-05-25T03:27:23.498Z,23.73
2018-05-25T03:29:52.250Z,24.30
2018-05-25T03:32:20.040Z,24.63
2018-05-25T03:35:04.362Z,24.50
2018-05-25T03:37:32.138Z,22.93
2018-05-25T03:40:01.540Z,25.43
2018-05-25T03:42:30.078Z,23.10
2018-05-25T03:44:59.722Z,19.00
2018-05-25T03:47:27.496Z,27.97
2018-05-25T03:49:56.309Z,23.43
2018-05-25T03:52:25.915Z,25.37
2018-05-25T03:55:01.148Z,21.07
2018-05-25T03:57:32.569Z,19.60
2018-05-25T04:00:12.075Z,23.00
2018-05-25T04:02:42.342Z,19.27
2018-05-25T04:05:10.934Z,19.87
2018-05-25T04:07:38.922Z,20.63
2018-05-25T04:10:08.255Z,18.70
2018-05-25T04:12:35.966Z,19.63
2018-05-25T04:15:03.659Z,22.93
2018-05-25T04:17:31.343Z,22.30
2018-05-25T04:20:03.482Z,26.80
2018-05-25T04:22:31.417Z,21.57
2018-05-25T04:24:59.994Z,20.17
2018-05-25T04:27:29.172Z,21.00
2018-05-25T04:29:59.391Z,18.77
2018-05-25T04:32:29.999Z,20.03
2018-05-25T04:34:58.529Z,22.30
2018-05-25T04:37:28.404Z,26.47
2018-05-25T04:39:56.036Z,26.67
2018-05-25T04:42:23.670Z,21.67
2018-05-25T04:44:53.877Z,20.87
2018-05-25T04:47:22.141Z,26.47
2018-05-25T04:49:52.381Z,22.83
2018-05-25T04:52:20.801Z,24.07
2018-05-25T04:54:52.505Z,25.37
2018-05-25T04:57:21.970Z,22.27
2018-05-25T04:59:51.586Z,20.03
2018-05-25T05:02:21.197Z,23.60
2018-05-25T05:04:48.928Z,30.17
2018-05-25T05:07:16.907Z,21.77
2018-05-25T05:09:46.327Z,21.60
2018-05-25T05:12:15.639Z,22.93
2018-05-25T05:14:43.281Z,21.00
2018-05-25T05:17:10.939Z,21.77
2018-05-25T05:19:39.192Z,18.50
2018-05-25T05:22:06.858Z,23.87
2018-05-25T05:24:35.853Z,20.23
2018-05-25T05:27:06.430Z,20.53
2018-05-25T05:29:34.991Z,20.40
2018-05-25T05:32:02.582Z,21.07
2018-05-25T05:34:32.298Z,18.80
2018-05-25T05:36:59.902Z,19.10
2018-05-25T05:39:27.491Z,21.57
2018-05-25T05:41:55.114Z,20.30
2018-05-25T05:44:22.703Z,20.53
2018-05-25T05:46:50.296Z,20.60
2018-05-25T05:49:17.924Z,19.37
2018-05-25T05:51:45.552Z,22.93
2018-05-25T05:54:13.906Z,19.53
2018-05-25T05:56:41.527Z,24.27
2018-05-25T05:59:09.120Z,23.37
2018-05-25T06:01:36.712Z,19.27
2018-05-25T06:04:04.351Z,20.17
2018-05-25T06:06:31.934Z,21.07
2018-05-25T06:08:59.542Z,19.47
2018-05-25T06:11:27.168Z,19.67
2018-05-25T06:13:55.479Z,22.37
2018-05-25T06:16:23.844Z,20.77
2018-05-25T06:18:52.235Z,24.07
2018-05-25T06:21:20.612Z,25.00
2018-05-25T06:23:48.211Z,19.97
2018-05-25T06:26:15.838Z,17.40
2018-05-25T06:28:43.445Z,19.00
2018-05-25T06:31:12.586Z,14.90
2018-05-25T06:33:40.296Z,20.43
2018-05-25T06:36:07.894Z,17.07
2018-05-25T06:38:35.491Z,19.40
2018-05-25T06:41:03.152Z,18.63
2018-05-25T06:43:30.762Z,17.23
2018-05-25T06:45:58.350Z,17.20
2018-05-25T06:48:25.986Z,19.67
2018-05-25T06:50:53.584Z,26.13
2018-05-25T06:53:21.180Z,18.77
2018-05-25T06:55:48.840Z,14.70
2018-05-25T06:58:16.440Z,17.93
2018-05-25T07:00:44.863Z,19.67
2018-05-25T07:03:12.481Z,16.43
2018-05-25T07:05:40.835Z,13.97
2018-05-25T07:08:08.430Z,15.13
2018-05-25T07:10:36.843Z,15.90
2018-05-25T07:15:54.757Z,14.93
2018-05-25T07:18:22.383Z,14.70
2018-05-25T07:20:49.992Z,18.60
2018-05-25T07:23:18.416Z,16.27
2018-05-25T07:25:46.021Z,16.17
2018-05-25T07:28:13.630Z,15.00
2018-05-25T07:30:41.447Z,14.77
2018-05-25T07:33:09.075Z,17.80
2018-05-25T07:35:36.690Z,15.77
2018-05-25T07:38:04.343Z,13.77
2018-05-25T07:40:31.957Z,19.47
2018-05-25T07:42:59.601Z,16.17
2018-05-25T07:45:28.016Z,16.13
2018-05-25T07:47:55.626Z,14.37
2018-05-25T07:50:23.242Z,18.40
2018-05-25T07:52:50.905Z,14.83
2018-05-25T07:55:18.527Z,18.20
2018-05-25T07:57:46.142Z,18.70
2018-05-25T08:00:13.794Z,18.67
2018-05-25T08:02:42.175Z,15.83
2018-05-25T08:05:10.558Z,17.37
2018-05-25T08:07:38.965Z,16.20
2018-05-25T08:10:06.570Z,17.13
2018-05-25T08:12:34.204Z,16.40
2018-05-25T08:15:01.851Z,16.50
2018-05-25T08:17:29.498Z,14.85
2018-05-25T08:19:57.873Z,15.83
2018-05-25T08:22:26.293Z,14.30
2018-05-25T08:24:53.897Z,15.73
2018-05-25T08:27:21.648Z,15.17
2018-05-25T08:29:49.304Z,18.93
2018-05-25T08:32:16.917Z,17.83
2018-05-25T08:34:45.326Z,15.70
2018-05-25T08:37:12.990Z,14.10
2018-05-25T08:39:41.389Z,15.17
2018-05-25T08:42:09.016Z,15.07
2018-05-25T08:44:36.665Z,13.93
2018-05-25T08:47:04.293Z,16.27
2018-05-25T08:49:31.929Z,14.93
2018-05-25T08:51:59.644Z,13.77
2018-05-25T08:54:27.265Z,12.77
2018-05-25T08:56:55.646Z,13.10
2018-05-25T08:59:23.316Z,12.73
2018-05-25T09:01:50.964Z,17.77
2018-05-25T09:04:18.630Z,16.20
2018-05-25T09:06:46.295Z,17.73
2018-05-25T09:09:13.931Z,15.07
2018-05-25T09:11:41.542Z,18.43
2018-05-25T09:14:09.195Z,16.70
2018-05-25T09:16:36.806Z,17.67
2018-05-25T09:19:05.174Z,16.20
2018-05-25T09:21:32.860Z,18.93
2018-05-25T09:24:01.231Z,16.93
2018-05-25T09:26:28.833Z,14.83
2018-05-25T09:28:56.505Z,12.50
2018-05-25T09:31:24.125Z,15.70
2018-05-25T09:33:51.855Z,13.43
2018-05-25T09:36:19.513Z,16.03
2018-05-25T09:38:47.220Z,15.03
2018-05-25T09:41:14.825Z,14.43
2018-05-25T09:43:42.464Z,13.60
2018-05-25T09:46:10.848Z,15.47
2018-05-25T09:48:39.489Z,15.77
2018-05-25T09:51:07.136Z,12.90
2018-05-25T09:53:34.749Z,15.03
2018-05-25T09:56:02.379Z,14.87
2018-05-25T09:58:30.062Z,12.87
2018-05-25T10:00:57.677Z,13.47
2018-05-25T10:03:26.060Z,12.43
2018-05-25T10:05:54.461Z,13.80
2018-05-25T10:08:22.061Z,10.90
2018-05-25T10:10:49.682Z,14.67
2018-05-25T10:13:18.081Z,11.20
2018-05-25T10:15:45.698Z,12.13
2018-05-25T10:18:13.329Z,11.23
2018-05-25T10:20:40.971Z,12.97
2018-05-25T10:23:08.579Z,15.37
2018-05-25T10:25:36.188Z,14.43
2018-05-25T10:28:03.859Z,17.53
2018-05-25T10:30:32.253Z,14.97
2018-05-25T10:32:59.866Z,12.43
2018-05-25T10:35:27.512Z,12.13
2018-05-25T10:37:55.119Z,11.83
2018-05-25T10:40:22.736Z,13.33
2018-05-25T10:42:50.381Z,12.97
2018-05-25T10:45:18.002Z,14.23
2018-05-25T10:47:45.604Z,16.93
2018-05-25T10:50:13.270Z,15.30
2018-05-25T10:52:40.896Z,16.87
2018-05-25T10:55:08.507Z,14.53
2018-05-25T10:57:36.179Z,15.63
2018-05-25T11:00:03.790Z,14.23
2018-05-25T11:02:31.406Z,10.20
2018-05-25T11:04:59.050Z,15.03
2018-05-25T11:07:27.422Z,17.17
2018-05-25T11:09:55.105Z,13.60
2018-05-25T11:12:23.612Z,13.30
2018-05-25T11:14:51.253Z,12.97
2018-05-25T11:17:19.623Z,9.00
2018-05-25T11:19:47.279Z,13.63
2018-05-25T11:22:14.886Z,16.30
2018-05-25T11:24:42.504Z,12.47
2018-05-25T11:27:10.153Z,12.57
2018-05-25T11:29:37.775Z,13.73
2018-05-25T11:32:06.157Z,10.37
2018-05-25T11:34:34.584Z,12.47
2018-05-25T11:37:02.204Z,11.40
2018-05-25T11:39:30.591Z,13.53
2018-05-25T11:41:59.113Z,10.40
2018-05-25T11:44:26.730Z,11.77
2018-05-25T11:46:55.131Z,11.23
2018-05-25T11:49:23.539Z,14.03
2018-05-25T11:51:51.161Z,12.50
2018-05-25T11:54:19.542Z,12.07
2018-05-25T11:56:47.971Z,14.33
2018-05-25T11:59:15.637Z,13.53
2018-05-25T12:01:43.257Z,12.17
2018-05-25T12:04:10.900Z,12.83
2018-05-25T12:06:38.525Z,12.30
2018-05-25T12:09:07.008Z,13.87
2018-05-25T12:11:34.661Z,15.10
2018-05-25T12:14:02.288Z,10.10
2018-05-25T12:16:29.932Z,15.40
2018-05-25T12:18:57.577Z,14.37
2018-05-25T12:21:25.199Z,13.93
2018-05-25T12:23:52.818Z,14.27
2018-05-25T12:26:20.513Z,14.67
2018-05-25T12:28:48.125Z,14.37
2018-05-25T12:31:15.730Z,11.50
2018-05-25T12:33:43.479Z,15.33
2018-05-25T12:36:11.088Z,12.87
2018-05-25T12:38:38.695Z,10.23
2018-05-25T12:41:06.334Z,9.63
2018-05-25T12:43:34.701Z,8.40
2018-05-25T12:46:02.302Z,11.83
2018-05-25T12:48:29.990Z,10.00
2018-05-25T12:50:57.601Z,9.30
2018-05-25T12:53:25.211Z,10.47
2018-05-25T12:55:52.855Z,9.27
2018-05-25T12:58:21.230Z,8.90
2018-05-25T13:00:49.606Z,10.33
2018-05-25T13:03:17.316Z,11.90
2018-05-25T13:05:44.929Z,12.90
2018-05-25T13:08:12.550Z,10.27
2018-05-25T13:10:40.223Z,12.77
2018-05-25T13:13:07.836Z,10.87
2018-05-25T13:15:35.447Z,12.37
2018-05-25T13:18:03.089Z,13.77
2018-05-25T13:20:31.480Z,13.00
2018-05-25T13:22:59.094Z,12.47
2018-05-25T13:25:26.803Z,11.70
2018-05-25T13:27:55.175Z,11.57
2018-05-25T13:30:23.549Z,10.00
2018-05-25T13:32:51.205Z,8.30
2018-05-25T13:35:18.808Z,10.73
2018-05-25T13:37:46.418Z,8.93
2018-05-25T13:40:14.120Z,8.73
2018-05-25T13:42:42.512Z,9.67
2018-05-25T13:45:11.812Z,7.43
2018-05-25T13:47:40.249Z,8.67
2018-05-25T13:50:08.006Z,8.73
2018-05-25T13:52:35.616Z,8.50
2018-05-25T13:55:04.028Z,8.60
2018-05-25T13:57:31.639Z,7.73
2018-05-25T13:59:59.252Z,6.90
2018-05-25T14:02:27.696Z,6.40
2018-05-25T14:04:55.291Z,6.23
2018-05-25T14:07:23.659Z,7.77
2018-05-25T14:09:51.322Z,5.20
2018-05-25T14:12:18.946Z,7.50
2018-05-25T14:14:46.551Z,9.30
2018-05-25T14:17:14.226Z,7.33
2018-05-25T14:19:41.827Z,7.90
2018-05-25T14:22:09.433Z,5.90
2018-05-25T14:24:37.146Z,7.80
2018-05-25T14:27:04.790Z,5.90
2018-05-25T14:29:32.413Z,5.50
2018-05-25T14:32:00.087Z,6.20
2018-05-25T14:34:27.694Z,8.30
2018-05-25T14:36:56.085Z,6.40
2018-05-25T14:39:24.502Z,6.53
2018-05-25T14:41:52.117Z,7.20
2018-05-25T14:44:19.742Z,10.83
2018-05-25T14:46:47.413Z,7.57
2018-05-25T14:49:15.027Z,8.03
2018-05-25T14:51:43.389Z,8.00
2018-05-25T14:54:11.097Z,6.60
2018-05-25T14:56:38.712Z,7.53
2018-05-25T14:59:06.400Z,7.70
2018-05-25T15:01:34.045Z,7.07
2018-05-25T15:04:01.661Z,6.27
2018-05-25T15:06:29.313Z,5.80
2018-05-25T15:08:57.756Z,5.70
2018-05-25T15:11:25.413Z,6.50
2018-05-25T15:13:53.013Z,5.20
2018-05-25T15:16:20.664Z,5.23
2018-05-25T15:18:48.273Z,4.73
2018-05-25T15:21:15.890Z,4.67
2018-05-25T15:23:43.648Z,6.33
2018-05-25T15:26:11.963Z,5.77
2018-05-25T15:28:40.348Z,6.40
2018-05-25T15:31:08.033Z,6.07
2018-05-25T15:33:36.387Z,5.57
2018-05-25T15:36:04.001Z,5.23
2018-05-25T15:38:31.680Z,5.50
2018-05-25T15:40:59.285Z,5.17
2018-05-25T15:43:26.892Z,5.37
2018-05-25T15:45:54.541Z,7.57
2018-05-25T15:48:22.932Z,6.40
2018-05-25T15:50:51.320Z,6.47
2018-05-25T15:53:18.946Z,5.40
2018-05-25T15:55:46.548Z,5.83
2018-05-25T15:58:14.180Z,6.17
2018-05-25T16:00:41.825Z,5.33
2018-05-25T16:03:09.432Z,5.77
2018-05-25T16:05:37.809Z,5.63
2018-05-25T16:08:06.216Z,6.63
2018-05-25T16:10:33.848Z,5.77
2018-05-25T16:13:01.468Z,5.73
2018-05-25T16:15:29.093Z,5.17
2018-05-25T16:17:57.461Z,6.60
2018-05-25T16:20:25.073Z,7.70
2018-05-25T16:22:52.739Z,5.60
2018-05-25T16:25:20.352Z,7.63
2018-05-25T16:27:47.950Z,7.33
2018-05-25T16:30:15.594Z,6.67
2018-05-25T16:32:43.197Z,6.20
2018-05-25T16:35:11.335Z,5.57
2018-05-25T16:37:38.982Z,5.80
2018-05-25T16:40:06.642Z,6.17
2018-05-25T16:42:34.246Z,5.33
2018-05-25T16:45:02.757Z,4.80
2018-05-25T16:47:30.364Z,5.63
2018-05-25T16:49:57.969Z,6.60
2018-05-25T16:52:26.391Z,4.90
2018-05-25T16:54:53.992Z,7.63
2018-05-25T16:57:21.596Z,6.23
2018-05-25T16:59:49.271Z,6.17
2018-05-25T17:02:16.877Z,9.10
2018-05-25T17:04:44.494Z,7.70
2018-05-25T17:07:12.138Z,5.50
2018-05-25T17:09:40.504Z,5.93
2018-05-25T17:12:08.107Z,6.67
2018-05-25T17:14:35.751Z,7.43
2018-05-25T17:17:04.125Z,7.00
2018-05-25T17:19:31.721Z,7.60
2018-05-25T17:21:59.365Z,6.60
2018-05-25T17:24:27.776Z,6.50
2018-05-25T17:26:55.427Z,7.40
2018-05-25T17:29:23.073Z,7.60
2018-05-25T17:31:50.697Z,7.87
2018-05-25T17:34:18.310Z,6.53
2018-05-25T17:36:46.717Z,6.37
2018-05-25T17:39:14.339Z,7.93
2018-05-25T17:41:41.947Z,10.07
2018-05-25T17:44:09.582Z,5.87
2018-05-25T17:46:37.214Z,5.33
2018-05-25T17:49:04.814Z,5.33
2018-05-25T17:51:32.466Z,4.50
2018-05-25T17:54:00.083Z,5.87
2018-05-25T17:56:27.688Z,6.10
2018-05-25T17:58:55.324Z,7.87
2018-05-25T18:01:22.982Z,9.03
2018-05-25T18:03:50.590Z,7.40
2018-05-25T18:06:18.280Z,6.13
2018-05-25T18:08:46.649Z,6.33
2018-05-25T18:11:14.252Z,7.30
2018-05-25T18:13:41.981Z,8.77
2018-05-25T18:16:09.612Z,5.10
2018-05-25T18:18:37.219Z,4.87
2018-05-25T18:21:04.853Z,5.30
2018-05-25T18:23:32.485Z,5.53
2018-05-25T18:26:00.110Z,5.20
2018-05-25T18:28:27.766Z,6.63
2018-05-25T18:30:55.372Z,5.97
2018-05-25T18:33:23.742Z,6.23
2018-05-25T18:35:52.152Z,8.20
2018-05-25T18:38:19.755Z,7.37
2018-05-25T18:40:47.404Z,5.47
2018-05-25T18:43:15.065Z,5.93
2018-05-25T18:45:42.689Z,4.97
2018-05-25T18:48:11.107Z,5.37
2018-05-25T18:50:38.864Z,5.90
2018-05-25T18:53:06.484Z,4.70
2018-05-25T18:55:34.089Z,8.20
2018-05-25T18:58:01.771Z,5.87
2018-05-25T19:00:29.365Z,8.37
2018-05-25T19:02:57.728Z,5.80
2018-05-25T19:05:25.360Z,5.40
2018-05-25T19:07:53.728Z,9.23
2018-05-25T19:10:22.115Z,8.80
2018-05-25T19:12:50.605Z,7.23
2018-05-25T19:15:18.973Z,8.53
2018-05-25T19:17:46.598Z,6.20
2018-05-25T19:20:14.373Z,7.67
2018-05-25T19:22:42.742Z,5.23
2018-05-25T19:25:11.278Z,9.17
2018-05-25T19:27:38.922Z,6.70
2018-05-25T19:30:06.522Z,6.67
2018-05-25T19:32:34.887Z,5.70
2018-05-25T19:35:02.554Z,5.80
2018-05-25T19:37:30.175Z,5.80
2018-05-25T19:39:57.808Z,6.23
2018-05-25T19:42:26.222Z,7.47
2018-05-25T19:44:53.845Z,7.50
2018-05-25T19:47:22.222Z,7.07
2018-05-25T19:49:49.896Z,5.43
2018-05-25T19:52:18.289Z,5.97
2018-05-25T19:54:46.669Z,7.43
2018-05-25T19:57:15.187Z,7.53
2018-05-25T19:59:42.798Z,7.60
2018-05-25T20:02:10.405Z,5.50
2018-05-25T20:04:38.034Z,6.00
2018-05-25T20:07:05.652Z,5.70
2018-05-25T20:09:33.308Z,7.57
2018-05-25T20:12:00.953Z,5.40
2018-05-25T20:14:29.571Z,6.20
2018-05-25T20:16:57.179Z,7.70
2018-05-25T20:19:24.813Z,6.20
2018-05-25T20:21:52.438Z,6.13
2018-05-25T20:24:20.805Z,5.80
2018-05-25T20:26:48.453Z,6.07
2018-05-25T20:29:16.102Z,6.03
2018-05-25T20:31:43.705Z,6.03
2018-05-25T20:34:11.339Z,6.07
2018-05-25T20:36:38.948Z,6.57
2018-05-25T20:39:07.321Z,7.07
2018-05-25T20:41:35.727Z,7.33
2018-05-25T20:44:03.367Z,7.87
2018-05-25T20:46:30.973Z,8.97
2018-05-25T20:48:58.633Z,7.97
2018-05-25T20:51:26.245Z,7.07
2018-05-25T20:53:53.856Z,7.27
2018-05-25T20:56:21.496Z,8.40
2018-05-25T20:58:49.124Z,8.40
2018-05-25T21:01:16.734Z,7.53
2018-05-25T21:03:45.228Z,6.60
2018-05-25T21:06:13.594Z,9.83
2018-05-25T21:08:41.212Z,8.27
2018-05-25T21:11:08.861Z,7.80
2018-05-25T21:13:36.469Z,6.90
2018-05-25T21:16:04.095Z,7.33
2018-05-25T21:18:31.732Z,8.30
2018-05-25T21:21:00.104Z,7.07
2018-05-25T21:23:27.709Z,7.37
2018-05-25T21:25:55.357Z,8.53
2018-05-25T21:28:23.729Z,9.23
2018-05-25T21:30:52.111Z,7.47
2018-05-25T21:33:20.518Z,7.10
2018-05-25T21:35:48.140Z,6.80
2018-05-25T21:38:15.751Z,7.60
2018-05-25T21:40:43.390Z,8.77
2018-05-25T21:43:11.757Z,8.43
2018-05-25T21:45:39.409Z,10.43
2018-05-25T21:48:07.077Z,8.10
2018-05-25T21:50:34.687Z,8.90
2018-05-25T21:53:02.287Z,8.40
2018-05-25T21:55:29.933Z,8.53
2018-05-25T21:57:57.539Z,8.60
2018-05-25T22:00:31.641Z,10.77
2018-05-25T22:02:59.255Z,9.20
2018-05-25T22:05:27.637Z,9.03
2018-05-25T22:07:56.026Z,8.20
2018-05-25T22:10:24.394Z,9.03
2018-05-25T22:12:52.767Z,13.10
2018-05-25T22:15:20.412Z,7.93
2018-05-25T22:17:48.054Z,8.90
2018-05-25T22:20:15.649Z,8.63
2018-05-25T22:22:43.268Z,10.80
2018-05-25T22:25:11.477Z,11.00
2018-05-25T22:27:39.083Z,10.63
2018-05-25T22:30:06.677Z,8.63
2018-05-25T22:32:34.360Z,12.77
2018-05-25T22:35:01.958Z,9.13
2018-05-25T22:37:29.562Z,9.83
2018-05-25T22:39:57.970Z,10.13
2018-05-25T22:42:37.367Z,9.97
2018-05-25T22:45:17.549Z,8.60
2018-05-25T22:47:56.771Z,10.23
2018-05-25T22:50:36.064Z,9.63
2018-05-25T22:53:08.702Z,9.60
2018-05-25T22:55:36.337Z,9.73
2018-05-25T22:58:04.701Z,9.43
2018-05-25T23:00:32.333Z,11.67
2018-05-25T23:03:00.009Z,12.13
2018-05-25T23:05:27.606Z,11.07
2018-05-25T23:07:55.970Z,9.67
2018-05-25T23:10:23.628Z,9.77
2018-05-25T23:12:51.241Z,11.00
2018-05-25T23:15:18.844Z,10.17
2018-05-25T23:17:46.480Z,12.63
2018-05-25T23:20:14.209Z,9.23
2018-05-25T23:22:41.809Z,11.13
2018-05-25T23:25:09.451Z,10.40
2018-05-25T23:27:37.812Z,9.00
2018-05-25T23:30:05.418Z,10.73
2018-05-25T23:32:33.066Z,10.13
2018-05-25T23:35:01.433Z,10.00
2018-05-25T23:37:29.043Z,10.07
2018-05-25T23:39:56.681Z,10.40
2018-05-25T23:42:25.051Z,9.67
2018-05-25T23:44:52.644Z,12.33
2018-05-25T23:47:20.296Z,12.77
2018-05-25T23:49:48.663Z,11.33
2018-05-25T23:52:16.280Z,12.17
2018-05-25T23:54:43.913Z,13.13
2018-05-25T23:57:12.296Z,12.73
2018-05-25T23:59:40.679Z,15.00
